Time;durP1;ratioP1;P1;durP2;ratioP2;P2;SDS_P1;SDS_P2;PMS_P1;PMS_P2;Temp;Humidity;BMP_temperature;BMP_pressure;BME280_temperature;BME280_humidity;BME280_pressure;Samples;Min_cycle;Max_cycle;Signal;HPM_P1;HPM_P2
2022/09/11 00:00:26;;;;;;;;;;;16.50;99.90;;;;;;4986350;28;20012;-81
2022/09/11 00:02:52;;;;;;;;;;;16.60;99.90;;;;;;4991258;28;20390;-80
2022/09/11 00:05:17;;;;;;;;;;;16.50;99.90;;;;;;4994884;28;19905;-82
2022/09/11 00:07:43;;;;;;;;;;;16.50;99.90;;;;;;4994792;28;20009;-81
2022/09/11 00:10:09;;;;;;;;;;;16.50;99.90;;;;;;4982227;28;19961;-79
2022/09/11 00:12:34;;;;;;;;;;;16.50;99.90;;;;;;4989052;28;19917;-81
2022/09/11 00:15:00;;;;;;;;;;;16.50;99.90;;;;;;4995543;28;19918;-84
2022/09/11 00:17:25;;;;;;;;;;;16.50;99.90;;;;;;4995724;28;19921;-82
2022/09/11 00:19:51;;;;;;;;;;;16.50;99.90;;;;;;4998174;28;19982;-82
2022/09/11 00:22:16;;;;;;;;;;;16.50;99.90;;;;;;4989564;28;19914;-82
2022/09/11 00:24:42;;;;;;;;;;;16.40;99.90;;;;;;4989811;28;19910;-81
2022/09/11 00:27:07;;;;;;;;;;;16.50;99.90;;;;;;4994358;28;20393;-83
2022/09/11 00:29:33;;;;;;;;;;;16.50;99.90;;;;;;4991450;28;19917;-83
2022/09/11 00:31:58;;;;;;;;;;;16.40;99.90;;;;;;4986423;28;20511;-82
2022/09/11 00:34:24;;;;;;;;;;;16.50;99.90;;;;;;4987779;28;19918;-82
2022/09/11 00:36:51;;;;;;;;;;;16.40;99.90;;;;;;4991365;28;19964;-82
2022/09/11 00:39:16;;;;;;;;;;;16.40;99.90;;;;;;5012562;28;20381;-82
2022/09/11 00:41:43;;;;;;;;;;;16.40;99.90;;;;;;4995817;28;19969;-83
2022/09/11 00:44:16;;;;;;;;;;;16.40;99.90;;;;;;5002884;28;20130;-82
2022/09/11 00:46:44;;;;;;;;;;;16.40;99.90;;;;;;4988383;28;19973;-82
2022/09/11 00:49:31;;;;;;;;;;;16.40;99.90;;;;;;4989988;28;19920;-82
2022/09/11 00:52:01;;;;;;;;;;;16.40;99.90;;;;;;4996180;28;19914;-82
2022/09/11 00:54:32;;;;;;;;;;;16.40;99.90;;;;;;5005286;28;19993;-83
2022/09/11 00:56:58;;;;;;;;;;;16.40;99.90;;;;;;4991026;28;19932;-81
2022/09/11 00:59:25;;;;;;;;;;;16.40;99.90;;;;;;4998420;28;19914;-80
2022/09/11 01:01:51;;;;;;;;;;;16.40;99.90;;;;;;4993656;28;20458;-81
2022/09/11 01:04:17;;;;;;;;;;;16.30;99.90;;;;;;4986853;28;19914;-82
2022/09/11 01:06:45;;;;;;;;;;;16.40;99.90;;;;;;4990355;28;19941;-81
2022/09/11 01:09:11;;;;;;;;;;;16.30;99.90;;;;;;4991001;28;19914;-82
2022/09/11 01:11:39;;;;;;;;;;;16.40;99.90;;;;;;4989937;28;19920;-82
2022/09/11 01:14:07;;;;;;;;;;;16.40;99.90;;;;;;4991906;28;19920;-83
2022/09/11 01:16:36;;;;;;;;;;;16.40;99.90;;;;;;5003668;28;19914;-81
2022/09/11 01:19:02;;;;;;;;;;;;;;;;;;5007989;28;19952;-81
2022/09/11 01:21:51;;;;;;;;;;;16.40;99.90;;;;;;5003111;28;19917;-83
2022/09/11 01:24:35;;;;;;;;;;;16.40;99.90;;;;;;4989715;28;19952;-79
2022/09/11 01:27:19;;;;;;;;;;;16.30;99.90;;;;;;4997796;28;19945;-80
2022/09/11 01:29:49;;;;;;;;;;;16.30;99.90;;;;;;4996816;28;19960;-83
2022/09/11 01:32:23;;;;;;;;;;;16.30;99.90;;;;;;4991304;28;20391;-83
2022/09/11 01:34:56;;;;;;;;;;;16.30;99.90;;;;;;4990014;28;20539;-82
2022/09/11 01:37:26;;;;;;;;;;;16.30;99.90;;;;;;4987677;28;19985;-83
2022/09/11 01:39:52;;;;;;;;;;;;;;;;;;4994265;28;19978;-83
2022/09/11 01:42:19;;;;;;;;;;;16.30;99.90;;;;;;4993474;28;20366;-82
2022/09/11 01:44:49;;;;;;;;;;;16.30;99.90;;;;;;4997582;28;19922;-83
2022/09/11 01:47:15;;;;;;;;;;;16.30;99.90;;;;;;4985384;28;19913;-82
2022/09/11 01:49:44;;;;;;;;;;;16.30;99.90;;;;;;4985840;28;20287;-82
2022/09/11 01:52:11;;;;;;;;;;;16.30;99.90;;;;;;4980967;28;19920;-81
2022/09/11 01:54:46;;;;;;;;;;;16.30;99.90;;;;;;4984234;28;19914;-80
2022/09/11 01:57:26;;;;;;;;;;;16.30;99.90;;;;;;4989727;28;19925;-80
2022/09/11 01:59:57;;;;;;;;;;;16.30;99.90;;;;;;4984909;28;19944;-85
2022/09/11 02:02:29;;;;;;;;;;;16.20;99.90;;;;;;4989225;28;19917;-78
2022/09/11 02:04:59;;;;;;;;;;;16.20;99.90;;;;;;4984512;28;19986;-81
2022/09/11 02:07:29;;;;;;;;;;;16.20;99.90;;;;;;4992489;28;19919;-80
2022/09/11 02:09:58;;;;;;;;;;;16.20;99.90;;;;;;4988859;28;19906;-80
2022/09/11 02:12:27;;;;;;;;;;;16.20;99.90;;;;;;4990010;28;19912;-81
2022/09/11 02:14:53;;;;;;;;;;;16.20;99.90;;;;;;4985873;28;19921;-84
2022/09/11 02:17:36;;;;;;;;;;;16.20;99.90;;;;;;5002816;28;19913;-84
2022/09/11 02:20:02;;;;;;;;;;;16.20;99.90;;;;;;5011337;28;19956;-82
2022/09/11 02:22:28;;;;;;;;;;;16.20;99.90;;;;;;5006973;28;19940;-86
2022/09/11 02:24:54;;;;;;;;;;;16.20;99.90;;;;;;5017406;28;19905;-86
2022/09/11 02:27:21;;;;;;;;;;;16.30;99.90;;;;;;5009487;28;19917;-86
2022/09/11 02:29:47;;;;;;;;;;;16.30;99.90;;;;;;5005847;28;19964;-88
2022/09/11 02:32:12;;;;;;;;;;;16.30;99.90;;;;;;5005478;28;19922;-85
2022/09/11 02:34:39;;;;;;;;;;;16.30;99.90;;;;;;5008166;28;19906;-87
2022/09/11 02:37:11;;;;;;;;;;;16.30;99.90;;;;;;5006172;28;19914;-83
2022/09/11 02:39:43;;;;;;;;;;;16.30;99.90;;;;;;4996395;28;19981;-78
2022/09/11 02:42:29;;;;;;;;;;;16.30;99.90;;;;;;4990803;28;20434;-81
2022/09/11 02:45:11;;;;;;;;;;;18.00;99.90;;;;;;4989274;28;19910;-81
2022/09/11 02:47:37;;;;;;;;;;;16.30;99.90;;;;;;4993879;28;19910;-79
2022/09/11 02:50:21;;;;;;;;;;;16.30;99.90;;;;;;4993938;28;19910;-80
2022/09/11 02:52:51;;;;;;;;;;;16.30;99.90;;;;;;5000803;28;19945;-84
2022/09/11 02:55:23;;;;;;;;;;;16.30;99.90;;;;;;4992364;28;20383;-81
2022/09/11 02:57:56;;;;;;;;;;;16.30;99.90;;;;;;4996641;28;19996;-84
2022/09/11 03:02:55;;;;;;;;;;;16.30;99.90;;;;;;4994009;28;19936;-82
2022/09/11 03:05:22;;;;;;;;;;;16.30;99.90;;;;;;4979741;28;19917;-82
2022/09/11 03:07:47;;;;;;;;;;;17.10;99.90;;;;;;4967887;28;19956;-82
2022/09/11 03:10:13;;;;;;;;;;;16.30;99.90;;;;;;4963242;28;19909;-82
2022/09/11 03:12:40;;;;;;;;;;;16.30;99.90;;;;;;4967735;28;20591;-83
2022/09/11 03:15:08;;;;;;;;;;;16.30;99.90;;;;;;4966735;28;19914;-84
2022/09/11 03:17:34;;;;;;;;;;;;;;;;;;4978778;28;19920;-82
2022/09/11 03:19:59;;;;;;;;;;;16.20;99.90;;;;;;4975400;28;19914;-84
2022/09/11 03:22:25;;;;;;;;;;;16.20;99.90;;;;;;4973708;28;19961;-85
2022/09/11 03:24:51;;;;;;;;;;;15.20;99.90;;;;;;4987086;28;19910;-82
2022/09/11 03:27:16;;;;;;;;;;;16.20;99.90;;;;;;4977303;28;19921;-83
2022/09/11 03:29:43;;;;;;;;;;;16.20;99.90;;;;;;4969201;28;19914;-85
2022/09/11 03:32:09;;;;;;;;;;;16.20;99.90;;;;;;4970232;28;19910;-85
2022/09/11 03:34:35;;;;;;;;;;;16.20;99.90;;;;;;4972276;28;19910;-81
2022/09/11 03:37:01;;;;;;;;;;;16.20;99.90;;;;;;4987783;28;19952;-83
2022/09/11 03:39:26;;;;;;;;;;;16.20;99.90;;;;;;4968959;28;19924;-84
2022/09/11 03:41:53;;;;;;;;;;;16.20;99.90;;;;;;4990441;28;19913;-85
2022/09/11 03:44:19;;;;;;;;;;;16.20;99.90;;;;;;4975946;28;19921;-84
2022/09/11 03:46:44;;;;;;;;;;;16.20;99.90;;;;;;4972378;28;19961;-87
2022/09/11 03:49:10;;;;;;;;;;;16.20;99.90;;;;;;4974184;28;19925;-84
2022/09/11 03:51:35;;;;;;;;;;;16.20;99.90;;;;;;4973262;28;19913;-81
2022/09/11 03:54:01;;;;;;;;;;;16.20;99.90;;;;;;4974189;28;19910;-83
2022/09/11 03:56:27;;;;;;;;;;;16.20;99.90;;;;;;4985585;28;20367;-83
2022/09/11 03:58:55;;;;;;;;;;;16.20;99.90;;;;;;4974730;28;20259;-86
2022/09/11 04:01:21;;;;;;;;;;;16.20;99.90;;;;;;4971263;28;19922;-84
2022/09/11 04:03:47;;;;;;;;;;;16.20;99.90;;;;;;4978168;28;19936;-83
2022/09/11 04:06:12;;;;;;;;;;;16.20;99.90;;;;;;4977001;28;19960;-80
2022/09/11 04:08:40;;;;;;;;;;;16.20;99.90;;;;;;4973511;28;19917;-80
2022/09/11 04:11:05;;;;;;;;;;;16.20;99.90;;;;;;4973398;28;19910;-86
2022/09/11 04:13:35;;;;;;;;;;;16.20;99.90;;;;;;4977326;28;19960;-83
2022/09/11 04:16:03;;;;;;;;;;;16.20;99.90;;;;;;4974406;28;20145;-82
2022/09/11 04:18:29;;;;;;;;;;;16.20;99.90;;;;;;4978797;28;19929;-81
2022/09/11 04:20:55;;;;;;;;;;;16.20;99.90;;;;;;4977975;28;19918;-81
2022/09/11 04:23:20;;;;;;;;;;;16.10;99.90;;;;;;4979672;28;20366;-83
2022/09/11 04:25:46;;;;;;;;;;;16.10;99.90;;;;;;4979527;28;20330;-80
2022/09/11 04:28:13;;;;;;;;;;;16.10;99.90;;;;;;4982378;28;19980;-84
2022/09/11 04:30:38;;;;;;;;;;;16.10;99.90;;;;;;4979191;28;19981;-83
2022/09/11 04:33:04;;;;;;;;;;;16.00;99.90;;;;;;4981616;28;19953;-83
2022/09/11 04:35:30;;;;;;;;;;;16.00;99.90;;;;;;4976361;28;19936;-81
2022/09/11 04:37:56;;;;;;;;;;;16.00;99.90;;;;;;4979322;28;19988;-81
2022/09/11 04:40:22;;;;;;;;;;;15.90;99.90;;;;;;4993192;28;19917;-85
2022/09/11 04:42:47;;;;;;;;;;;16.00;99.90;;;;;;5005203;28;19914;-83
2022/09/11 04:45:13;;;;;;;;;;;16.00;99.90;;;;;;5002696;28;19905;-81
2022/09/11 04:47:39;;;;;;;;;;;16.00;99.90;;;;;;5002498;28;19976;-84
2022/09/11 04:50:05;;;;;;;;;;;16.00;99.90;;;;;;4997155;28;20354;-84
2022/09/11 04:52:32;;;;;;;;;;;16.00;99.90;;;;;;5016884;28;19905;-82
2022/09/11 04:54:58;;;;;;;;;;;16.00;99.90;;;;;;4979783;28;19914;-86
2022/09/11 04:57:23;;;;;;;;;;;16.00;99.90;;;;;;4972756;28;19910;-84
2022/09/11 04:59:50;;;;;;;;;;;16.00;99.90;;;;;;4982263;28;19913;-84
2022/09/11 05:02:15;;;;;;;;;;;16.00;99.90;;;;;;4974211;28;19920;-86
2022/09/11 05:04:41;;;;;;;;;;;16.00;99.90;;;;;;4984732;28;19910;-83
2022/09/11 05:07:06;;;;;;;;;;;16.00;99.90;;;;;;4975816;28;19914;-82
2022/09/11 05:09:32;;;;;;;;;;;16.00;99.90;;;;;;4970071;28;19910;-82
2022/09/11 05:11:58;;;;;;;;;;;16.00;99.90;;;;;;4971882;28;19940;-86
2022/09/11 05:14:24;;;;;;;;;;;16.00;99.90;;;;;;4975642;28;19967;-85
2022/09/11 05:16:51;;;;;;;;;;;16.00;99.90;;;;;;4975231;28;20004;-82
2022/09/11 05:19:17;;;;;;;;;;;16.10;99.90;;;;;;4981489;28;20348;-83
2022/09/11 05:21:43;;;;;;;;;;;16.10;99.90;;;;;;4974470;28;19918;-82
2022/09/11 05:24:08;;;;;;;;;;;16.10;99.90;;;;;;4981651;28;19917;-81
2022/09/11 05:26:34;;;;;;;;;;;;;;;;;;4958923;28;20426;-82
2022/09/11 05:29:01;;;;;;;;;;;16.00;99.90;;;;;;4994753;28;19948;-79
2022/09/11 05:31:30;;;;;;;;;;;16.10;99.90;;;;;;4993760;28;20000;-82
2022/09/11 05:33:57;;;;;;;;;;;16.10;99.90;;;;;;4988949;28;19913;-80
2022/09/11 05:36:23;;;;;;;;;;;16.00;99.90;;;;;;4977042;28;19910;-81
2022/09/11 05:38:48;;;;;;;;;;;16.10;99.90;;;;;;4983933;28;19897;-78
2022/09/11 05:41:14;;;;;;;;;;;16.00;99.90;;;;;;5015620;28;19940;-78
2022/09/11 05:43:40;;;;;;;;;;;16.00;99.90;;;;;;5013926;28;19898;-80
2022/09/11 05:46:06;;;;;;;;;;;16.00;99.90;;;;;;4992661;28;19917;-80
2022/09/11 05:48:32;;;;;;;;;;;16.10;99.90;;;;;;4992592;28;19914;-78
2022/09/11 05:50:59;;;;;;;;;;;16.10;99.90;;;;;;4998197;28;19921;-82
2022/09/11 05:53:26;;;;;;;;;;;16.10;99.90;;;;;;4968910;28;19953;-82
2022/09/11 05:55:52;;;;;;;;;;;16.10;99.90;;;;;;4973064;28;20338;-81
2022/09/11 05:58:18;;;;;;;;;;;16.20;99.90;;;;;;4975065;28;19961;-80
2022/09/11 06:00:46;;;;;;;;;;;16.10;99.90;;;;;;4982056;28;19913;-82
2022/09/11 06:03:16;;;;;;;;;;;16.10;99.90;;;;;;4975107;28;22188;-83
2022/09/11 06:05:41;;;;;;;;;;;16.20;99.90;;;;;;4978371;28;19910;-80
2022/09/11 06:08:08;;;;;;;;;;;16.20;99.90;;;;;;4982271;28;19960;-86
2022/09/11 06:10:34;;;;;;;;;;;16.20;99.90;;;;;;4977774;28;19925;-82
2022/09/11 06:12:59;;;;;;;;;;;16.20;99.90;;;;;;4981147;28;19921;-82
2022/09/11 06:15:25;;;;;;;;;;;16.10;99.90;;;;;;4977740;28;19910;-83
2022/09/11 06:17:51;;;;;;;;;;;16.20;99.90;;;;;;5000682;28;19949;-83
2022/09/11 06:20:17;;;;;;;;;;;16.20;99.90;;;;;;4978388;28;19983;-84
2022/09/11 06:22:42;;;;;;;;;;;16.30;99.90;;;;;;4979762;28;19917;-80
2022/09/11 06:25:08;;;;;;;;;;;16.20;99.90;;;;;;4976505;28;19935;-81
2022/09/11 06:27:34;;;;;;;;;;;;;;;;;;4977082;28;20119;-85
2022/09/11 06:30:00;;;;;;;;;;;16.30;99.90;;;;;;4986705;28;19914;-84
2022/09/11 06:32:25;;;;;;;;;;;16.20;99.90;;;;;;4973796;28;19921;-84
2022/09/11 06:34:51;;;;;;;;;;;16.30;99.90;;;;;;4974136;28;20000;-84
2022/09/11 06:37:16;;;;;;;;;;;16.30;99.90;;;;;;4979381;28;19910;-83
2022/09/11 06:39:42;;;;;;;;;;;16.30;99.90;;;;;;4972028;28;19968;-83
2022/09/11 06:42:08;;;;;;;;;;;16.30;99.90;;;;;;4974116;28;19917;-84
2022/09/11 06:44:34;;;;;;;;;;;;;;;;;;4970737;28;19909;-84
2022/09/11 06:47:00;;;;;;;;;;;16.20;99.90;;;;;;4988391;28;20263;-84
2022/09/11 06:49:25;;;;;;;;;;;16.30;99.90;;;;;;4999152;28;19921;-81
2022/09/11 06:51:52;;;;;;;;;;;16.30;99.90;;;;;;4973132;28;19917;-83
2022/09/11 06:54:18;;;;;;;;;;;16.20;99.90;;;;;;4980092;28;20300;-82
2022/09/11 06:56:44;;;;;;;;;;;16.30;99.90;;;;;;4989379;28;19910;-82
2022/09/11 06:59:13;;;;;;;;;;;16.40;99.90;;;;;;4985658;28;19941;-79
2022/09/11 07:01:38;;;;;;;;;;;16.40;99.90;;;;;;4969379;28;19940;-82
2022/09/11 07:04:04;;;;;;;;;;;16.50;99.90;;;;;;4981013;28;19917;-85
2022/09/11 07:06:30;;;;;;;;;;;16.50;99.90;;;;;;4974811;28;20000;-80
2022/09/11 07:09:02;;;;;;;;;;;16.50;99.90;;;;;;4971742;28;20397;-81
2022/09/11 07:11:31;;;;;;;;;;;16.50;99.90;;;;;;4974276;28;19913;-80
2022/09/11 07:13:56;;;;;;;;;;;16.50;99.90;;;;;;4971429;28;20374;-83
2022/09/11 07:16:22;;;;;;;;;;;16.60;99.90;;;;;;4977404;28;19921;-81
2022/09/11 07:18:48;;;;;;;;;;;16.60;99.90;;;;;;4978109;28;19913;-84
2022/09/11 07:21:15;;;;;;;;;;;16.50;99.90;;;;;;4974043;28;19957;-82
2022/09/11 07:23:41;;;;;;;;;;;16.70;99.90;;;;;;4979334;28;20052;-80
2022/09/11 07:26:09;;;;;;;;;;;16.80;99.90;;;;;;4973465;28;20366;-82
2022/09/11 07:28:36;;;;;;;;;;;;;;;;;;4977039;28;19924;-79
2022/09/11 07:31:06;;;;;;;;;;;16.90;99.90;;;;;;4998295;28;19918;-86
2022/09/11 07:33:31;;;;;;;;;;;17.00;99.90;;;;;;4981486;28;19933;-84
2022/09/11 07:35:57;;;;;;;;;;;17.10;99.90;;;;;;4970192;28;19909;-81
2022/09/11 07:38:22;;;;;;;;;;;17.10;99.90;;;;;;4976629;28;19920;-78
2022/09/11 07:40:52;;;;;;;;;;;17.20;99.90;;;;;;4969923;28;19926;-82
2022/09/11 07:43:18;;;;;;;;;;;17.20;99.90;;;;;;4989094;28;20385;-83
2022/09/11 07:45:44;;;;;;;;;;;17.30;99.90;;;;;;4992407;28;19920;-82
2022/09/11 07:48:09;;;;;;;;;;;17.20;99.90;;;;;;4994203;28;19910;-79
2022/09/11 07:50:35;;;;;;;;;;;17.20;99.90;;;;;;4977781;28;19921;-80
2022/09/11 07:53:03;;;;;;;;;;;17.30;99.90;;;;;;4973269;28;19917;-83
2022/09/11 07:55:31;;;;;;;;;;;17.30;99.90;;;;;;4973032;28;20370;-80
2022/09/11 07:57:57;;;;;;;;;;;17.30;99.90;;;;;;4988467;28;19909;-82
2022/09/11 08:00:22;;;;;;;;;;;17.50;99.90;;;;;;4982078;28;19921;-85
2022/09/11 08:02:48;;;;;;;;;;;17.50;99.90;;;;;;4989361;28;20013;-83
2022/09/11 08:05:14;;;;;;;;;;;17.70;99.90;;;;;;4986535;28;19986;-81
2022/09/11 08:07:39;;;;;;;;;;;17.80;99.90;;;;;;4972580;28;19965;-80
2022/09/11 08:10:06;;;;;;;;;;;17.90;99.90;;;;;;4971305;28;20143;-83
2022/09/11 08:12:41;;;;;;;;;;;17.90;99.90;;;;;;4978775;28;19968;-80
2022/09/11 08:15:07;;;;;;;;;;;18.00;99.90;;;;;;4977244;28;19984;-84
2022/09/11 08:17:35;;;;;;;;;;;17.90;99.90;;;;;;4984293;28;19914;-81
2022/09/11 08:20:01;;;;;;;;;;;18.00;99.90;;;;;;4977918;28;19945;-82
2022/09/11 08:22:27;;;;;;;;;;;17.90;99.90;;;;;;4976407;28;19925;-83
2022/09/11 08:24:52;;;;;;;;;;;18.00;99.90;;;;;;4983372;28;19913;-81
2022/09/11 08:27:25;;;;;;;;;;;18.10;99.90;;;;;;4985990;28;19960;-82
2022/09/11 08:29:51;;;;;;;;;;;18.20;99.90;;;;;;4981633;28;19910;-82
2022/09/11 08:32:16;;;;;;;;;;;18.10;99.90;;;;;;4988882;28;20041;-80
2022/09/11 08:34:42;;;;;;;;;;;18.20;99.90;;;;;;4961631;28;19918;-82
2022/09/11 08:37:07;;;;;;;;;;;18.20;99.90;;;;;;4978710;28;19913;-81
2022/09/11 08:39:33;;;;;;;;;;;18.20;99.90;;;;;;4993007;28;20004;-82
2022/09/11 08:42:04;;;;;;;;;;;18.30;99.90;;;;;;4973506;28;19914;-82
2022/09/11 08:44:36;;;;;;;;;;;18.30;99.90;;;;;;4974488;28;19913;-81
2022/09/11 08:47:09;;;;;;;;;;;18.40;99.90;;;;;;4977900;28;19922;-84
2022/09/11 08:49:45;;;;;;;;;;;18.40;99.90;;;;;;4997564;28;19913;-81
2022/09/11 08:52:12;;;;;;;;;;;18.40;99.90;;;;;;4992623;28;19921;-81
2022/09/11 08:54:39;;;;;;;;;;;18.40;99.90;;;;;;4975937;28;20374;-81
2022/09/11 08:57:11;;;;;;;;;;;18.40;99.90;;;;;;4976955;28;20001;-81
2022/09/11 08:59:44;;;;;;;;;;;18.50;99.90;;;;;;4990896;28;19921;-81
2022/09/11 09:02:17;;;;;;;;;;;18.80;99.90;;;;;;4992562;28;19917;-83
2022/09/11 09:05:02;;;;;;;;;;;18.90;99.90;;;;;;4987762;28;19959;-81
2022/09/11 09:07:32;;;;;;;;;;;19.00;99.90;;;;;;4992130;28;20278;-80
2022/09/11 09:10:15;;;;;;;;;;;19.10;99.90;;;;;;4996225;28;19917;-81
2022/09/11 09:12:41;;;;;;;;;;;19.20;99.90;;;;;;4986914;28;19917;-86
2022/09/11 09:15:28;;;;;;;;;;;19.00;99.90;;;;;;4984086;28;20338;-80
2022/09/11 09:18:03;;;;;;;;;;;18.90;99.90;;;;;;4989399;28;20044;-83
2022/09/11 09:20:33;;;;;;;;;;;18.70;99.90;;;;;;4991975;28;20301;-82
2022/09/11 09:23:02;;;;;;;;;;;18.60;99.90;;;;;;4981164;28;20291;-81
2022/09/11 09:25:28;;;;;;;;;;;18.60;99.90;;;;;;4981019;28;19964;-79
2022/09/11 09:27:53;;;;;;;;;;;18.60;99.90;;;;;;4976381;28;20393;-81
2022/09/11 09:30:22;;;;;;;;;;;18.60;99.90;;;;;;4992151;28;19913;-81
2022/09/11 09:32:51;;;;;;;;;;;18.50;99.90;;;;;;4977862;28;19910;-81
2022/09/11 09:35:49;;;;;;;;;;;18.60;99.90;;;;;;4994080;28;19914;-83
2022/09/11 09:38:18;;;;;;;;;;;18.60;99.90;;;;;;4950232;28;19918;-80
2022/09/11 09:41:02;;;;;;;;;;;18.60;99.90;;;;;;4976079;28;20012;-79
2022/09/11 09:43:42;;;;;;;;;;;18.60;99.90;;;;;;4989399;28;19921;-85
2022/09/11 09:46:31;;;;;;;;;;;18.70;99.90;;;;;;4986474;28;19945;-81
2022/09/11 09:48:59;;;;;;;;;;;18.90;99.90;;;;;;4969838;28;19997;-83
2022/09/11 09:51:25;;;;;;;;;;;19.00;99.90;;;;;;4981819;28;19992;-81
2022/09/11 09:53:55;;;;;;;;;;;19.00;99.90;;;;;;4976770;28;19914;-82
2022/09/11 09:56:22;;;;;;;;;;;19.30;99.90;;;;;;4976470;28;20346;-82
2022/09/11 09:58:56;;;;;;;;;;;19.50;99.90;;;;;;4976080;28;20286;-79
2022/09/11 10:01:50;;;;;;;;;;;19.50;99.90;;;;;;4987146;28;19967;-80
2022/09/11 10:04:26;;;;;;;;;;;19.70;99.90;;;;;;4961867;28;20012;-80
2022/09/11 10:07:07;;;;;;;;;;;19.70;99.90;;;;;;4992560;28;20192;-80
2022/09/11 10:09:33;;;;;;;;;;;19.90;99.90;;;;;;4995114;28;19917;-80
2022/09/11 10:12:07;;;;;;;;;;;20.00;99.90;;;;;;4990927;28;19937;-81
2022/09/11 10:14:41;;;;;;;;;;;20.00;99.90;;;;;;4979951;28;19981;-81
2022/09/11 10:17:17;;;;;;;;;;;20.00;99.90;;;;;;4984549;28;20259;-78
2022/09/11 10:19:43;;;;;;;;;;;19.90;99.90;;;;;;4972352;28;19969;-79
2022/09/11 10:22:44;;;;;;;;;;;19.90;99.90;;;;;;4965070;28;20028;-80
2022/09/11 10:25:14;;;;;;;;;;;19.90;99.90;;;;;;4910991;29;19950;-79
2022/09/11 10:27:45;;;;;;;;;;;19.90;99.90;;;;;;4977901;28;20004;-82
2022/09/11 10:30:28;;;;;;;;;;;19.90;99.90;;;;;;4986341;28;19920;-79
2022/09/11 10:32:54;;;;;;;;;;;19.90;99.90;;;;;;4972822;28;19914;-82
2022/09/11 10:35:22;;;;;;;;;;;19.90;99.90;;;;;;4973165;28;19941;-82
2022/09/11 10:37:58;;;;;;;;;;;19.90;99.90;;;;;;4985875;28;19917;-79
2022/09/11 10:40:23;;;;;;;;;;;19.90;99.90;;;;;;4980931;28;19920;-81
2022/09/11 10:42:50;;;;;;;;;;;19.90;99.90;;;;;;4980058;28;19910;-79
2022/09/11 10:45:17;;;;;;;;;;;20.00;99.90;;;;;;4978692;28;19929;-78
2022/09/11 10:47:44;;;;;;;;;;;20.00;99.90;;;;;;4975523;28;20003;-81
2022/09/11 10:50:16;;;;;;;;;;;20.20;99.90;;;;;;4972884;28;19922;-81
2022/09/11 10:52:57;;;;;;;;;;;20.30;99.90;;;;;;4989402;28;19948;-81
2022/09/11 10:55:24;;;;;;;;;;;20.20;99.90;;;;;;4985150;28;19913;-81
2022/09/11 10:57:54;;;;;;;;;;;20.30;99.90;;;;;;4994434;28;19909;-81
2022/09/11 11:00:19;;;;;;;;;;;20.30;99.90;;;;;;4975525;28;19918;-83
2022/09/11 11:02:47;;;;;;;;;;;20.30;99.90;;;;;;4987021;28;19924;-82
2022/09/11 11:05:38;;;;;;;;;;;20.50;99.90;;;;;;4974189;28;20418;-83
2022/09/11 11:08:07;;;;;;;;;;;20.50;99.90;;;;;;4993651;28;19913;-83
2022/09/11 11:10:49;;;;;;;;;;;20.60;99.90;;;;;;4987341;28;19968;-84
2022/09/11 11:13:18;;;;;;;;;;;20.60;99.90;;;;;;4985612;28;19941;-83
2022/09/11 11:15:59;;;;;;;;;;;20.40;99.90;;;;;;4978238;28;20001;-84
2022/09/11 11:18:30;;;;;;;;;;;20.50;99.90;;;;;;4994041;28;19937;-85
2022/09/11 11:21:01;;;;;;;;;;;20.60;99.90;;;;;;4973488;28;19922;-82
2022/09/11 11:23:44;;;;;;;;;;;20.60;99.90;;;;;;4991070;28;19910;-85
2022/09/11 11:26:09;;;;;;;;;;;20.90;99.90;;;;;;4992550;28;19913;-85
2022/09/11 11:28:53;;;;;;;;;;;21.00;99.90;;;;;;4973789;28;19914;-84
2022/09/11 11:31:37;;;;;;;;;;;21.10;99.90;;;;;;4990838;28;19917;-84
2022/09/11 11:34:11;;;;;;;;;;;21.30;99.90;;;;;;4978997;28;19909;-83
2022/09/11 11:36:49;;;;;;;;;;;21.20;99.90;;;;;;4976237;28;19914;-82
2022/09/11 11:39:18;;;;;;;;;;;21.20;99.90;;;;;;4978037;28;19922;-83
2022/09/11 11:41:45;;;;;;;;;;;21.30;99.90;;;;;;4978370;28;19914;-83
2022/09/11 11:44:14;;;;;;;;;;;21.30;99.90;;;;;;5000380;28;19914;-83
2022/09/11 11:46:46;;;;;;;;;;;21.40;99.90;;;;;;4971138;28;20005;-83
2022/09/11 11:49:18;;;;;;;;;;;21.50;99.90;;;;;;4968905;28;20355;-84
2022/09/11 11:51:44;;;;;;;;;;;;;;;;;;4982687;28;20391;-84
2022/09/11 11:54:16;;;;;;;;;;;21.40;99.90;;;;;;4982907;28;19913;-83
2022/09/11 11:56:49;;;;;;;;;;;21.40;99.90;;;;;;4998776;28;20351;-84
2022/09/11 11:59:14;;;;;;;;;;;21.20;99.90;;;;;;4991119;28;19909;-82
2022/09/11 12:01:47;;;;;;;;;;;21.20;99.90;;;;;;4989448;28;19980;-83
2022/09/11 12:04:23;;;;;;;;;;;21.10;99.90;;;;;;4983454;28;19917;-83
2022/09/11 12:06:49;;;;;;;;;;;21.00;99.90;;;;;;4980569;28;20437;-85
2022/09/11 12:09:16;;;;;;;;;;;21.20;99.90;;;;;;4976867;28;19913;-82
2022/09/11 12:11:44;;;;;;;;;;;21.20;99.90;;;;;;4995328;28;19913;-83
2022/09/11 12:14:23;;;;;;;;;;;21.10;99.90;;;;;;4987781;28;19941;-83
2022/09/11 12:16:51;;;;;;;;;;;21.20;99.90;;;;;;4975184;28;19910;-83
2022/09/11 12:19:21;;;;;;;;;;;21.20;99.90;;;;;;4977169;28;20285;-85
2022/09/11 12:21:52;;;;;;;;;;;21.10;99.90;;;;;;4976143;28;19913;-81
2022/09/11 12:24:41;;;;;;;;;;;21.00;99.90;;;;;;5001713;28;19990;-84
2022/09/11 12:27:25;;;;;;;;;;;21.20;99.90;;;;;;4971937;28;20274;-81
2022/09/11 12:30:05;;;;;;;;;;;21.20;99.90;;;;;;4993600;28;19917;-84
2022/09/11 12:32:44;;;;;;;;;;;21.20;99.90;;;;;;4975793;28;19971;-84
2022/09/11 12:35:14;;;;;;;;;;;21.30;99.90;;;;;;4991136;28;19917;-83
2022/09/11 12:37:40;;;;;;;;;;;21.40;99.90;;;;;;4967679;28;19921;-83
2022/09/11 12:40:22;;;;;;;;;;;21.40;99.90;;;;;;4979866;28;20274;-85
2022/09/11 12:43:05;;;;;;;;;;;21.40;99.90;;;;;;4983014;28;20000;-84
2022/09/11 12:45:33;;;;;;;;;;;21.40;99.90;;;;;;4976699;28;19910;-85
2022/09/11 12:48:10;;;;;;;;;;;21.50;99.90;;;;;;4975437;28;19918;-83
2022/09/11 12:50:38;;;;;;;;;;;21.40;99.90;;;;;;4979203;28;19937;-83
2022/09/11 12:53:15;;;;;;;;;;;21.40;99.90;;;;;;4981449;28;19992;-84
2022/09/11 12:56:33;;;;;;;;;;;21.50;99.90;;;;;;4998260;28;19952;-85
2022/09/11 12:59:06;;;;;;;;;;;21.60;99.90;;;;;;4949122;28;19913;-87
2022/09/11 13:01:42;;;;;;;;;;;21.70;99.90;;;;;;4976766;28;19918;-84
2022/09/11 13:04:11;;;;;;;;;;;21.90;99.90;;;;;;4981416;28;20649;-85
2022/09/11 13:06:57;;;;;;;;;;;22.20;99.90;;;;;;4993963;28;20013;-83
2022/09/11 13:09:28;;;;;;;;;;;22.40;99.90;;;;;;4971252;28;19914;-85
2022/09/11 13:11:58;;;;;;;;;;;;;;;;;;4975288;28;20341;-83
2022/09/11 13:14:26;;;;;;;;;;;22.60;99.80;;;;;;4990273;28;19936;-83
2022/09/11 13:16:53;;;;;;;;;;;22.70;99.90;;;;;;4971724;28;19917;-82
2022/09/11 13:19:26;;;;;;;;;;;22.70;99.10;;;;;;4973718;28;19993;-82
2022/09/11 13:21:52;;;;;;;;;;;22.70;98.50;;;;;;4980267;28;19914;-81
2022/09/11 13:24:31;;;;;;;;;;;22.80;98.40;;;;;;4978545;28;19937;-84
2022/09/11 13:26:58;;;;;;;;;;;22.90;98.60;;;;;;4967847;28;19914;-83
2022/09/11 13:29:25;;;;;;;;;;;22.90;98.50;;;;;;4987734;28;19921;-84
2022/09/11 13:31:58;;;;;;;;;;;22.80;98.50;;;;;;4976320;28;20347;-83
2022/09/11 13:34:26;;;;;;;;;;;22.90;98.10;;;;;;4988552;28;19913;-82
2022/09/11 13:36:53;;;;;;;;;;;22.90;98.00;;;;;;4965043;28;19973;-84
2022/09/11 13:39:19;;;;;;;;;;;22.90;97.80;;;;;;4990101;28;19914;-83
2022/09/11 13:41:45;;;;;;;;;;;22.80;98.50;;;;;;4993161;28;19917;-83
2022/09/11 13:44:31;;;;;;;;;;;22.80;99.10;;;;;;4986553;28;19929;-83
2022/09/11 13:47:00;;;;;;;;;;;23.10;98.60;;;;;;4967641;28;20013;-86
2022/09/11 13:49:30;;;;;;;;;;;23.10;97.00;;;;;;4985260;28;19918;-84
2022/09/11 13:51:55;;;;;;;;;;;23.20;97.80;;;;;;4970018;28;19933;-84
2022/09/11 13:54:29;;;;;;;;;;;23.20;98.00;;;;;;4973918;28;20039;-84
2022/09/11 13:56:55;;;;;;;;;;;23.20;98.10;;;;;;4969188;28;19973;-85
2022/09/11 13:59:38;;;;;;;;;;;23.10;98.70;;;;;;4985001;28;19913;-83
2022/09/11 14:02:07;;;;;;;;;;;23.30;99.90;;;;;;4980238;28;20302;-83
2022/09/11 14:04:38;;;;;;;;;;;23.40;97.70;;;;;;4979946;28;19914;-83
2022/09/11 14:07:11;;;;;;;;;;;23.30;98.00;;;;;;4972738;28;19952;-81
2022/09/11 14:09:37;;;;;;;;;;;23.30;97.90;;;;;;4975883;28;19922;-81
2022/09/11 14:12:03;;;;;;;;;;;23.40;97.90;;;;;;4977630;28;19910;-82
2022/09/11 14:14:29;;;;;;;;;;;23.40;97.20;;;;;;4965965;28;21497;-83
2022/09/11 14:16:57;;;;;;;;;;;23.50;98.50;;;;;;4974576;28;20019;-81
2022/09/11 14:19:25;;;;;;;;;;;23.30;96.60;;;;;;4975331;28;19914;-85
2022/09/11 14:21:51;;;;;;;;;;;23.20;96.70;;;;;;4983373;28;19913;-82
2022/09/11 14:24:31;;;;;;;;;;;23.10;97.60;;;;;;4993918;28;19929;-84
2022/09/11 14:27:01;;;;;;;;;;;23.20;97.90;;;;;;4992595;28;19999;-82
2022/09/11 14:29:30;;;;;;;;;;;23.10;96.60;;;;;;4967330;28;19960;-87
2022/09/11 14:32:14;;;;;;;;;;;23.10;97.40;;;;;;4988740;28;19917;-83
2022/09/11 14:34:40;;;;;;;;;;;22.90;97.50;;;;;;4978963;28;19910;-85
2022/09/11 14:37:10;;;;;;;;;;;22.60;97.40;;;;;;4980776;28;19983;-83